createdAt,value
2018-04-22T00:01:51.751Z,8.50
2018-04-22T00:04:20.188Z,8.00
2018-04-22T00:06:48.601Z,8.97
2018-04-22T00:09:17.760Z,7.93
2018-04-22T00:11:46.295Z,8.17
2018-04-22T00:14:14.710Z,8.53
2018-04-22T00:16:43.868Z,9.37
2018-04-22T00:19:12.226Z,8.33
2018-04-22T00:21:41.424Z,9.23
2018-04-22T00:24:09.807Z,8.90
2018-04-22T00:26:38.190Z,9.10
2018-04-22T00:29:07.793Z,8.90
2018-04-22T00:31:36.214Z,8.43
2018-04-22T00:34:04.575Z,9.13
2018-04-22T00:36:32.966Z,8.83
2018-04-22T00:39:01.339Z,9.17
2018-04-22T00:41:30.490Z,9.07
2018-04-22T00:43:59.665Z,8.90
2018-04-22T00:46:28.807Z,9.07
2018-04-22T00:48:57.187Z,8.27
2018-04-22T00:51:25.555Z,8.37
2018-04-22T00:54:05.767Z,8.30
2018-04-22T00:56:34.302Z,8.10
2018-04-22T00:59:02.666Z,9.00
2018-04-22T01:01:31.038Z,8.90
2018-04-22T01:03:59.439Z,9.53
2018-04-22T01:06:28.591Z,8.83
2018-04-22T01:08:56.967Z,9.13
2018-04-22T01:11:25.342Z,8.77
2018-04-22T01:13:53.872Z,8.77
2018-04-22T01:16:22.223Z,9.00
2018-04-22T01:18:51.379Z,9.47
2018-04-22T01:21:19.762Z,8.57
2018-04-22T01:23:48.165Z,9.30
2018-04-22T01:26:16.577Z,8.63
2018-04-22T01:28:44.955Z,9.50
2018-04-22T01:31:13.325Z,8.83
2018-04-22T01:33:41.761Z,8.90
2018-04-22T01:36:10.344Z,9.70
2018-04-22T01:38:38.736Z,8.87
2018-04-22T01:41:07.102Z,9.63
2018-04-22T01:43:36.246Z,9.27
2018-04-22T01:46:04.588Z,8.70
2018-04-22T01:48:32.990Z,8.53
2018-04-22T01:51:01.427Z,8.17
2018-04-22T01:53:29.816Z,8.43
2018-04-22T01:55:58.189Z,7.93
2018-04-22T01:58:26.561Z,8.20
2018-04-22T02:00:54.926Z,7.73
2018-04-22T02:03:23.311Z,8.17
2018-04-22T02:05:51.687Z,8.47
2018-04-22T02:08:20.848Z,8.83
2018-04-22T02:10:49.217Z,8.70
2018-04-22T02:13:17.762Z,9.33
2018-04-22T02:15:46.154Z,9.50
2018-04-22T02:18:14.526Z,8.47
2018-04-22T02:20:43.107Z,8.63
2018-04-22T02:23:11.512Z,8.43
2018-04-22T02:25:39.885Z,9.00
2018-04-22T02:28:08.288Z,9.47
2018-04-22T02:30:36.663Z,9.83
2018-04-22T02:33:05.876Z,9.90
2018-04-22T02:35:34.771Z,9.97
2018-04-22T02:38:03.267Z,10.60
2018-04-22T02:40:31.633Z,10.83
2018-04-22T02:43:00.030Z,10.87
2018-04-22T02:45:28.411Z,10.03
2018-04-22T02:47:56.815Z,10.40
2018-04-22T02:50:25.242Z,9.50
2018-04-22T02:52:53.751Z,10.30
2018-04-22T02:55:22.897Z,9.83
2018-04-22T02:57:51.319Z,9.60
2018-04-22T03:00:19.692Z,9.77
2018-04-22T03:02:48.067Z,10.17
2018-04-22T03:05:16.486Z,10.37
2018-04-22T03:07:44.853Z,10.27
2018-04-22T03:10:14.032Z,10.00
2018-04-22T03:12:42.447Z,9.63
2018-04-22T03:15:10.807Z,9.80
2018-04-22T03:17:39.171Z,9.67
2018-04-22T03:20:07.557Z,9.50
2018-04-22T03:22:35.927Z,9.70
2018-04-22T03:25:04.296Z,9.93
2018-04-22T03:27:32.700Z,9.83
2018-04-22T03:30:01.081Z,10.60
2018-04-22T03:32:29.462Z,10.87
2018-04-22T03:34:57.865Z,11.87
2018-04-22T03:37:26.240Z,11.33
2018-04-22T03:39:54.690Z,10.80
2018-04-22T03:42:23.051Z,10.37
2018-04-22T03:44:51.526Z,10.80
2018-04-22T03:47:19.906Z,11.60
2018-04-22T03:49:49.058Z,10.70
2018-04-22T03:52:17.469Z,9.57
2018-04-22T03:54:45.863Z,9.17
2018-04-22T03:57:14.227Z,10.50
2018-04-22T03:59:42.654Z,10.03
2018-04-22T04:02:11.026Z,9.87
2018-04-22T04:04:39.413Z,9.70
2018-04-22T04:07:07.798Z,11.50
2018-04-22T04:09:36.177Z,10.57
2018-04-22T04:12:05.314Z,10.47
2018-04-22T04:14:33.697Z,10.90
2018-04-22T04:17:02.833Z,10.90
2018-04-22T04:19:42.957Z,11.33
2018-04-22T04:22:23.235Z,10.93
2018-04-22T04:28:20.298Z,13.00
2018-04-22T04:30:49.561Z,12.70
2018-04-22T04:33:18.198Z,11.80
2018-04-22T04:35:46.632Z,11.30
2018-04-22T04:38:15.811Z,11.80
2018-04-22T04:40:44.218Z,11.10
2018-04-22T04:43:12.598Z,11.63
2018-04-22T04:45:41.011Z,11.33
2018-04-22T04:48:09.547Z,11.77
2018-04-22T04:50:37.958Z,11.97
2018-04-22T04:53:06.834Z,11.50
2018-04-22T04:55:35.230Z,11.30
2018-04-22T04:58:04.585Z,10.00
2018-04-22T05:00:32.957Z,10.60
2018-04-22T05:03:01.349Z,10.87
2018-04-22T05:05:29.818Z,11.40
2018-04-22T05:07:58.990Z,9.73
2018-04-22T05:10:28.063Z,10.40
2018-04-22T05:12:56.762Z,11.07
2018-04-22T05:15:25.241Z,11.83
2018-04-22T05:17:54.675Z,12.33
2018-04-22T05:20:23.815Z,12.07
2018-04-22T05:22:52.197Z,10.93
2018-04-22T05:25:20.589Z,9.87
2018-04-22T05:27:49.883Z,12.27
2018-04-22T05:30:19.034Z,13.57
2018-04-22T05:32:47.426Z,14.27
2018-04-22T05:35:15.806Z,12.87
2018-04-22T05:37:44.210Z,13.77
2018-04-22T05:40:12.930Z,13.90
2018-04-22T05:42:41.365Z,12.93
2018-04-22T05:45:10.566Z,12.80
2018-04-22T05:47:38.961Z,12.90
2018-04-22T05:50:07.358Z,13.43
2018-04-22T05:52:35.756Z,13.03
2018-04-22T05:55:04.146Z,12.43
2018-04-22T05:57:32.530Z,12.63
2018-04-22T06:00:00.927Z,12.00
2018-04-22T06:02:29.613Z,12.63
2018-04-22T06:04:58.045Z,12.20
2018-04-22T06:07:26.630Z,12.23
2018-04-22T06:09:55.023Z,12.30
2018-04-22T06:12:23.468Z,11.00
2018-04-22T06:14:51.844Z,11.73
2018-04-22T06:17:20.257Z,11.97
2018-04-22T06:19:48.871Z,10.83
2018-04-22T06:22:18.134Z,10.97
2018-04-22T06:24:46.498Z,12.03
2018-04-22T06:27:14.909Z,11.43
2018-04-22T06:29:43.299Z,10.80
2018-04-22T06:32:11.677Z,12.70
2018-04-22T06:34:40.069Z,11.47
2018-04-22T06:37:09.239Z,12.07
2018-04-22T06:39:38.773Z,12.10
2018-04-22T06:42:07.279Z,12.93
2018-04-22T06:44:35.678Z,12.00
2018-04-22T06:47:04.190Z,12.70
2018-04-22T06:49:33.358Z,12.13
2018-04-22T06:52:01.895Z,12.53
2018-04-22T06:54:30.315Z,11.97
2018-04-22T06:56:58.812Z,12.03
2018-04-22T06:59:28.103Z,12.23
2018-04-22T07:01:56.567Z,11.97
2018-04-22T07:04:24.950Z,12.13
2018-04-22T07:06:53.448Z,12.50
2018-04-22T07:09:21.858Z,13.47
2018-04-22T07:11:50.272Z,12.20
2018-04-22T07:14:18.687Z,13.40
2018-04-22T07:16:47.103Z,12.20
2018-04-22T07:19:16.755Z,13.10
2018-04-22T07:21:45.135Z,12.87
2018-04-22T07:24:13.809Z,12.90
2018-04-22T07:26:42.292Z,13.80
2018-04-22T07:29:10.685Z,13.60
2018-04-22T07:31:39.063Z,12.37
2018-04-22T07:34:07.449Z,11.43
2018-04-22T07:36:35.890Z,12.17
2018-04-22T07:39:04.524Z,12.20
2018-04-22T07:41:32.949Z,11.90
2018-04-22T07:44:01.322Z,11.43
2018-04-22T07:46:29.710Z,12.77
2018-04-22T07:48:58.136Z,11.60
2018-04-22T07:51:26.521Z,12.03
2018-04-22T07:53:54.907Z,11.80
2018-04-22T07:56:23.354Z,10.57
2018-04-22T07:58:51.747Z,10.13
2018-04-22T08:01:20.133Z,9.67
2018-04-22T08:03:48.590Z,10.47
2018-04-22T08:06:16.959Z,10.30
2018-04-22T08:08:46.169Z,9.80
2018-04-22T08:11:14.546Z,10.10
2018-04-22T08:13:43.015Z,9.03
2018-04-22T08:16:11.407Z,9.40
2018-04-22T08:18:39.806Z,8.57
2018-04-22T08:21:08.193Z,8.27
2018-04-22T08:23:36.591Z,9.33
2018-04-22T08:26:05.746Z,9.37
2018-04-22T08:28:34.251Z,8.73
2018-04-22T08:31:02.883Z,8.00
2018-04-22T08:33:32.021Z,8.03
2018-04-22T08:36:00.455Z,8.57
2018-04-22T08:38:28.836Z,7.90
2018-04-22T08:40:57.211Z,7.77
2018-04-22T08:43:25.707Z,7.27
2018-04-22T08:45:54.081Z,7.83
2018-04-22T08:48:22.483Z,7.60
2018-04-22T08:50:50.877Z,7.80
2018-04-22T08:53:19.284Z,7.20
2018-04-22T08:55:47.702Z,7.33
2018-04-22T08:58:16.339Z,7.80
2018-04-22T09:00:44.774Z,7.20
2018-04-22T09:03:13.314Z,7.63
2018-04-22T09:05:41.876Z,7.47
2018-04-22T09:08:10.251Z,7.53
2018-04-22T09:10:39.432Z,6.73
2018-04-22T09:13:07.846Z,6.73
2018-04-22T09:15:36.258Z,7.83
2018-04-22T09:18:05.378Z,7.30
2018-04-22T09:20:33.901Z,7.10
2018-04-22T09:23:02.302Z,6.97
2018-04-22T09:25:30.710Z,6.40
2018-04-22T09:27:59.117Z,6.90
2018-04-22T09:30:27.498Z,6.77
2018-04-22T09:32:55.909Z,7.03
2018-04-22T09:35:24.323Z,6.40
2018-04-22T09:37:52.717Z,6.77
2018-04-22T09:40:21.355Z,6.30
2018-04-22T09:42:49.742Z,7.00
2018-04-22T09:45:18.478Z,6.47
2018-04-22T09:47:47.633Z,6.50
2018-04-22T09:50:16.591Z,6.67
2018-04-22T09:52:45.374Z,6.10
2018-04-22T09:55:14.522Z,6.43
2018-04-22T09:57:42.932Z,6.20
2018-04-22T10:00:11.368Z,6.40
2018-04-22T10:02:40.910Z,5.93
2018-04-22T10:05:09.279Z,5.30
2018-04-22T10:07:38.462Z,5.60
2018-04-22T10:10:06.877Z,5.43
2018-04-22T10:12:35.301Z,5.93
2018-04-22T10:15:04.659Z,6.00
2018-04-22T10:17:33.083Z,5.83
2018-04-22T10:20:01.497Z,5.20
2018-04-22T10:22:29.876Z,7.00
2018-04-22T10:24:58.389Z,24.87
2018-04-22T10:27:27.551Z,6.80
2018-04-22T10:29:56.014Z,5.73
2018-04-22T10:32:25.184Z,5.50
2018-04-22T10:34:53.600Z,6.83
2018-04-22T10:37:22.418Z,6.10
2018-04-22T10:39:50.902Z,5.77
2018-04-22T10:42:19.631Z,5.37
2018-04-22T10:44:48.789Z,4.60
2018-04-22T10:47:17.176Z,5.20
2018-04-22T10:49:45.873Z,5.37
2018-04-22T10:52:14.277Z,7.00
2018-04-22T10:54:42.420Z,5.70
2018-04-22T10:57:11.765Z,5.20
2018-04-22T10:59:40.162Z,9.20
2018-04-22T11:02:08.597Z,5.03
2018-04-22T11:04:37.046Z,5.20
2018-04-22T11:07:05.485Z,4.37
2018-04-22T11:09:33.918Z,4.27
2018-04-22T11:12:02.580Z,4.30
2018-04-22T11:14:30.975Z,3.97
2018-04-22T11:17:00.262Z,4.43
2018-04-22T11:19:28.786Z,4.47
2018-04-22T11:21:58.682Z,3.67
2018-04-22T11:24:27.970Z,4.10
2018-04-22T11:26:56.437Z,4.40
2018-04-22T11:29:24.818Z,4.13
2018-04-22T11:31:53.291Z,4.27
2018-04-22T11:34:22.564Z,4.23
2018-04-22T11:36:50.933Z,3.67
2018-04-22T11:39:19.319Z,3.70
2018-04-22T11:41:48.794Z,3.83
2018-04-22T11:44:17.455Z,3.57
2018-04-22T11:46:46.039Z,3.10
2018-04-22T11:49:15.481Z,3.37
2018-04-22T11:51:43.968Z,3.60
2018-04-22T11:54:12.380Z,3.63
2018-04-22T11:56:40.796Z,3.50
2018-04-22T11:59:09.316Z,3.47
2018-04-22T12:01:38.662Z,3.40
2018-04-22T12:04:07.122Z,3.20
2018-04-22T12:06:35.600Z,3.27
2018-04-22T12:09:04.050Z,3.53
2018-04-22T12:11:32.492Z,2.97
2018-04-22T12:14:01.674Z,2.80
2018-04-22T12:16:30.189Z,2.90
2018-04-22T12:18:58.600Z,2.70
2018-04-22T12:21:28.123Z,2.40
2018-04-22T12:23:56.595Z,3.20
2018-04-22T12:26:25.022Z,3.17
2018-04-22T12:28:53.538Z,3.00
2018-04-22T12:31:22.000Z,2.33
2018-04-22T12:33:50.410Z,2.50
2018-04-22T12:36:18.863Z,2.70
2018-04-22T12:38:47.460Z,3.00
2018-04-22T12:41:16.599Z,2.97
2018-04-22T12:43:44.995Z,3.00
2018-04-22T12:46:13.495Z,2.50
2018-04-22T12:48:41.920Z,2.90
2018-04-22T12:51:10.364Z,3.13
2018-04-22T12:53:38.774Z,3.30
2018-04-22T12:56:07.187Z,3.00
2018-04-22T12:58:35.638Z,2.77
2018-04-22T13:01:04.778Z,2.70
2018-04-22T13:03:33.199Z,3.03
2018-04-22T13:06:01.639Z,2.50
2018-04-22T13:08:29.913Z,2.47
2018-04-22T13:11:00.453Z,2.90
2018-04-22T13:13:28.903Z,2.60
2018-04-22T13:15:57.350Z,2.70
2018-04-22T13:18:25.735Z,2.40
2018-04-22T13:20:54.131Z,3.03
2018-04-22T13:23:22.530Z,3.27
2018-04-22T13:25:51.163Z,2.50
2018-04-22T13:28:20.411Z,2.60
2018-04-22T13:30:48.795Z,2.70
2018-04-22T13:33:17.177Z,2.70
2018-04-22T13:35:46.422Z,2.73
2018-04-22T13:38:14.845Z,2.67
2018-04-22T13:40:43.246Z,2.60
2018-04-22T13:43:11.676Z,2.80
2018-04-22T13:45:40.044Z,2.77
2018-04-22T13:48:08.423Z,2.83
2018-04-22T13:50:36.849Z,2.80
2018-04-22T13:53:05.286Z,2.63
2018-04-22T13:55:33.683Z,2.80
2018-04-22T13:58:02.461Z,3.20
2018-04-22T14:00:30.816Z,3.00
2018-04-22T14:02:59.271Z,2.90
2018-04-22T14:05:27.710Z,2.80
2018-04-22T14:07:56.103Z,3.30
2018-04-22T14:10:24.488Z,2.67
2018-04-22T14:12:52.901Z,2.70
2018-04-22T14:15:21.326Z,2.80
2018-04-22T14:17:49.817Z,3.00
2018-04-22T14:20:18.260Z,2.90
2018-04-22T14:22:46.728Z,2.83
2018-04-22T14:25:15.903Z,2.87
2018-04-22T14:27:44.429Z,3.30
2018-04-22T14:30:12.857Z,2.77
2018-04-22T14:32:41.566Z,3.17
2018-04-22T14:35:10.587Z,2.60
2018-04-22T14:37:41.014Z,3.37
2018-04-22T14:40:10.269Z,2.70
2018-04-22T14:42:38.662Z,3.07
2018-04-22T14:45:18.811Z,3.03
2018-04-22T14:47:48.288Z,3.23
2018-04-22T14:50:17.446Z,3.10
2018-04-22T14:52:46.495Z,3.13
2018-04-22T14:55:14.965Z,2.87
2018-04-22T14:57:44.238Z,2.90
2018-04-22T15:00:12.793Z,3.43
2018-04-22T15:02:41.210Z,3.07
2018-04-22T15:05:09.986Z,2.93
2018-04-22T15:07:39.172Z,3.10
2018-04-22T15:10:07.631Z,2.97
2018-04-22T15:12:36.076Z,3.00
2018-04-22T15:15:04.833Z,3.10
2018-04-22T15:17:33.430Z,3.30
2018-04-22T15:20:01.821Z,3.23
2018-04-22T15:22:30.473Z,3.53
2018-04-22T15:24:58.874Z,3.50
2018-04-22T15:27:27.317Z,3.30
2018-04-22T15:29:55.680Z,3.30
2018-04-22T15:32:24.220Z,3.43
2018-04-22T15:34:53.040Z,3.20
2018-04-22T15:37:23.823Z,3.23
2018-04-22T15:39:53.734Z,3.10
2018-04-22T15:42:22.121Z,3.40
2018-04-22T15:44:50.519Z,3.30
2018-04-22T15:47:19.654Z,3.60
2018-04-22T15:49:48.050Z,3.27
2018-04-22T15:52:16.443Z,3.20
2018-04-22T15:54:44.877Z,3.40
2018-04-22T15:57:13.297Z,3.67
2018-04-22T15:59:41.690Z,3.90
2018-04-22T16:02:16.078Z,3.57
2018-04-22T16:04:48.392Z,3.40
2018-04-22T16:07:17.866Z,3.33
2018-04-22T16:09:46.266Z,3.73
2018-04-22T16:12:14.661Z,3.97
2018-04-22T16:14:43.103Z,3.60
2018-04-22T16:17:11.952Z,3.40
2018-04-22T16:19:42.063Z,3.50
2018-04-22T16:22:11.220Z,3.30
2018-04-22T16:24:39.981Z,2.93
2018-04-22T16:27:08.375Z,3.43
2018-04-22T16:29:36.779Z,3.47
2018-04-22T16:32:05.964Z,3.30
2018-04-22T16:34:34.342Z,2.90
2018-04-22T16:37:02.735Z,2.77
2018-04-22T16:39:31.122Z,3.20
2018-04-22T16:41:59.628Z,2.50
2018-04-22T16:44:27.988Z,2.60
2018-04-22T16:46:56.920Z,2.80
2018-04-22T16:49:25.750Z,2.50
2018-04-22T16:51:54.514Z,2.50
2018-04-22T16:54:24.030Z,2.80
2018-04-22T16:56:53.205Z,2.97
2018-04-22T16:59:21.705Z,2.80
2018-04-22T17:01:50.262Z,2.73
2018-04-22T17:04:19.470Z,2.60
2018-04-22T17:06:48.524Z,2.40
2018-04-22T17:09:16.940Z,2.53
2018-04-22T17:11:45.383Z,2.40
2018-04-22T17:14:13.850Z,2.70
2018-04-22T17:16:42.766Z,2.40
2018-04-22T17:19:11.188Z,2.50
2018-04-22T17:21:39.613Z,2.53
2018-04-22T17:24:08.580Z,2.47
2018-04-22T17:26:36.926Z,2.60
2018-04-22T17:29:05.770Z,3.10
2018-04-22T17:31:34.941Z,2.50
2018-04-22T17:34:03.785Z,2.60
2018-04-22T17:36:32.966Z,2.27
2018-04-22T17:39:01.584Z,2.87
2018-04-22T17:41:30.283Z,2.83
2018-04-22T17:43:58.999Z,2.90
2018-04-22T17:46:27.368Z,2.83
2018-04-22T17:48:55.818Z,2.70
2018-04-22T17:51:25.399Z,2.50
2018-04-22T17:53:54.125Z,2.90
2018-04-22T17:56:23.054Z,2.73
2018-04-22T17:58:51.466Z,2.80
2018-04-22T18:01:19.879Z,2.30
2018-04-22T18:03:48.248Z,2.67
2018-04-22T18:06:16.650Z,2.60
2018-04-22T18:08:45.801Z,2.43
2018-04-22T18:11:14.175Z,2.50
2018-04-22T18:13:43.649Z,2.73
2018-04-22T18:16:12.062Z,2.70
2018-04-22T18:18:40.453Z,2.60
2018-04-22T18:21:08.875Z,2.87
2018-04-22T18:23:37.535Z,2.60
2018-04-22T18:26:06.676Z,2.57
2018-04-22T18:28:37.272Z,2.90
2018-04-22T18:31:05.728Z,3.00
2018-04-22T18:33:34.996Z,2.73
2018-04-22T18:36:03.412Z,2.70
2018-04-22T18:38:32.655Z,2.57
2018-04-22T18:41:00.769Z,2.40
2018-04-22T18:43:29.178Z,2.90
2018-04-22T18:45:57.590Z,3.00
2018-04-22T18:48:26.748Z,3.23
2018-04-22T18:50:55.257Z,2.93
2018-04-22T18:53:23.641Z,2.87
2018-04-22T18:55:52.032Z,2.87
2018-04-22T18:58:21.623Z,2.93
2018-04-22T19:00:50.010Z,3.30
2018-04-22T19:03:18.472Z,2.70
2018-04-22T19:05:46.893Z,2.87
2018-04-22T19:08:15.359Z,2.67
2018-04-22T19:10:44.461Z,2.77
2018-04-22T19:13:13.684Z,2.70
2018-04-22T19:15:42.633Z,2.43
2018-04-22T19:18:11.076Z,2.57
2018-04-22T19:20:39.463Z,2.33
2018-04-22T19:23:08.001Z,3.10
2018-04-22T19:25:36.447Z,2.50
2018-04-22T19:28:04.968Z,2.33
2018-04-22T19:30:33.525Z,2.70
2018-04-22T19:33:01.902Z,2.87
2018-04-22T19:35:30.307Z,2.77
2018-04-22T19:37:58.718Z,2.73
2018-04-22T19:40:27.155Z,2.20
2018-04-22T19:42:55.555Z,2.60
2018-04-22T19:45:23.968Z,2.70
2018-04-22T19:47:52.352Z,2.47
2018-04-22T19:50:20.792Z,2.43
2018-04-22T19:52:49.267Z,2.70
2018-04-22T19:55:17.669Z,2.70
2018-04-22T19:57:46.080Z,2.17
2018-04-22T20:00:14.635Z,2.67
2018-04-22T20:02:43.038Z,2.43
2018-04-22T20:05:11.405Z,2.37
2018-04-22T20:07:39.817Z,2.43
